sensor_id;sensor_type;location;lat;lon;timestamp;P1;durP1;ratioP1;P2;durP2;ratioP2
5127;SDS011;2582;48.770;9.190;2022-08-19T00:01:30;18.07;;;16.40;;
5127;SDS011;2582;48.770;9.190;2022-08-19T00:04:00;18.80;;;16.97;;
5127;SDS011;2582;48.770;9.190;2022-08-19T00:06:28;18.33;;;16.63;;
5127;SDS011;2582;48.770;9.190;2022-08-19T00:08:54;16.80;;;15.20;;
5127;SDS011;2582;48.770;9.190;2022-08-19T00:11:21;18.10;;;16.40;;
5127;SDS011;2582;48.770;9.190;2022-08-19T00:13:47;17.47;;;15.77;;
5127;SDS011;2582;48.770;9.190;2022-08-19T00:16:15;17.57;;;15.90;;
5127;SDS011;2582;48.770;9.190;2022-08-19T00:18:43;17.17;;;15.40;;
5127;SDS011;2582;48.770;9.190;2022-08-19T00:21:08;17.67;;;15.77;;
5127;SDS011;2582;48.770;9.190;2022-08-19T00:23:34;16.87;;;15.17;;
5127;SDS011;2582;48.770;9.190;2022-08-19T00:26:01;17.47;;;15.80;;
5127;SDS011;2582;48.770;9.190;2022-08-19T00:28:31;18.47;;;16.77;;
5127;SDS011;2582;48.770;9.190;2022-08-19T00:30:57;18.83;;;17.13;;
5127;SDS011;2582;48.770;9.190;2022-08-19T00:33:24;17.50;;;15.83;;
5127;SDS011;2582;48.770;9.190;2022-08-19T00:35:50;17.57;;;15.97;;
5127;SDS011;2582;48.770;9.190;2022-08-19T00:38:15;17.97;;;16.07;;
5127;SDS011;2582;48.770;9.190;2022-08-19T00:40:42;17.53;;;16.03;;
5127;SDS011;2582;48.770;9.190;2022-08-19T00:43:11;17.60;;;16.00;;
5127;SDS011;2582;48.770;9.190;2022-08-19T00:45:40;18.13;;;16.53;;
5127;SDS011;2582;48.770;9.190;2022-08-19T00:48:08;17.90;;;16.20;;
5127;SDS011;2582;48.770;9.190;2022-08-19T00:50:34;16.03;;;14.43;;
5127;SDS011;2582;48.770;9.190;2022-08-19T00:53:00;17.93;;;16.33;;
5127;SDS011;2582;48.770;9.190;2022-08-19T00:55:28;16.73;;;15.33;;
5127;SDS011;2582;48.770;9.190;2022-08-19T00:58:07;17.97;;;16.40;;
5127;SDS011;2582;48.770;9.190;2022-08-19T01:00:35;18.80;;;16.80;;
5127;SDS011;2582;48.770;9.190;2022-08-19T01:03:05;18.90;;;17.20;;
5127;SDS011;2582;48.770;9.190;2022-08-19T01:05:33;17.43;;;15.57;;
5127;SDS011;2582;48.770;9.190;2022-08-19T01:08:00;16.03;;;14.53;;
5127;SDS011;2582;48.770;9.190;2022-08-19T01:10:29;15.60;;;14.07;;
5127;SDS011;2582;48.770;9.190;2022-08-19T01:12:58;16.90;;;15.30;;
5127;SDS011;2582;48.770;9.190;2022-08-19T01:15:27;17.20;;;15.50;;
5127;SDS011;2582;48.770;9.190;2022-08-19T01:17:58;16.93;;;15.33;;
5127;SDS011;2582;48.770;9.190;2022-08-19T01:20:26;16.17;;;14.77;;
5127;SDS011;2582;48.770;9.190;2022-08-19T01:22:53;17.30;;;15.67;;
5127;SDS011;2582;48.770;9.190;2022-08-19T01:25:22;18.83;;;17.13;;
5127;SDS011;2582;48.770;9.190;2022-08-19T01:27:56;17.20;;;15.60;;
5127;SDS011;2582;48.770;9.190;2022-08-19T01:30:25;21.70;;;18.27;;
5127;SDS011;2582;48.770;9.190;2022-08-19T01:32:56;17.70;;;16.00;;
5127;SDS011;2582;48.770;9.190;2022-08-19T01:35:24;18.83;;;16.93;;
5127;SDS011;2582;48.770;9.190;2022-08-19T01:37:51;18.33;;;16.63;;
5127;SDS011;2582;48.770;9.190;2022-08-19T01:40:31;17.67;;;16.00;;
5127;SDS011;2582;48.770;9.190;2022-08-19T01:42:58;17.90;;;16.17;;
5127;SDS011;2582;48.770;9.190;2022-08-19T01:45:26;18.40;;;16.60;;
5127;SDS011;2582;48.770;9.190;2022-08-19T01:47:53;16.50;;;14.90;;
5127;SDS011;2582;48.770;9.190;2022-08-19T01:50:19;19.40;;;17.60;;
5127;SDS011;2582;48.770;9.190;2022-08-19T01:52:45;16.70;;;15.20;;
5127;SDS011;2582;48.770;9.190;2022-08-19T01:55:12;19.60;;;17.67;;
5127;SDS011;2582;48.770;9.190;2022-08-19T01:57:41;17.37;;;15.67;;
5127;SDS011;2582;48.770;9.190;2022-08-19T02:00:12;17.07;;;15.37;;
5127;SDS011;2582;48.770;9.190;2022-08-19T02:02:41;19.17;;;17.07;;
5127;SDS011;2582;48.770;9.190;2022-08-19T02:05:07;18.10;;;16.30;;
5127;SDS011;2582;48.770;9.190;2022-08-19T02:07:33;18.77;;;16.97;;
5127;SDS011;2582;48.770;9.190;2022-08-19T02:10:02;21.53;;;19.53;;
5127;SDS011;2582;48.770;9.190;2022-08-19T02:12:29;20.53;;;18.70;;
5127;SDS011;2582;48.770;9.190;2022-08-19T02:14:55;19.90;;;17.77;;
5127;SDS011;2582;48.770;9.190;2022-08-19T02:17:20;18.97;;;17.07;;
5127;SDS011;2582;48.770;9.190;2022-08-19T02:19:46;20.63;;;18.67;;
5127;SDS011;2582;48.770;9.190;2022-08-19T02:22:12;19.53;;;17.73;;
5127;SDS011;2582;48.770;9.190;2022-08-19T02:24:38;20.87;;;18.87;;
5127;SDS011;2582;48.770;9.190;2022-08-19T02:27:03;21.33;;;19.33;;
5127;SDS011;2582;48.770;9.190;2022-08-19T02:29:30;25.53;;;18.50;;
5127;SDS011;2582;48.770;9.190;2022-08-19T02:31:56;21.97;;;19.80;;
5127;SDS011;2582;48.770;9.190;2022-08-19T02:34:22;20.50;;;18.40;;
5127;SDS011;2582;48.770;9.190;2022-08-19T02:36:49;22.23;;;20.00;;
5127;SDS011;2582;48.770;9.190;2022-08-19T02:39:15;21.20;;;19.13;;
5127;SDS011;2582;48.770;9.190;2022-08-19T02:41:41;20.60;;;18.63;;
5127;SDS011;2582;48.770;9.190;2022-08-19T02:44:06;20.17;;;17.90;;
5127;SDS011;2582;48.770;9.190;2022-08-19T02:46:32;20.13;;;18.13;;
5127;SDS011;2582;48.770;9.190;2022-08-19T02:49:00;21.00;;;19.00;;
5127;SDS011;2582;48.770;9.190;2022-08-19T02:51:29;21.43;;;19.23;;
5127;SDS011;2582;48.770;9.190;2022-08-19T02:54:00;23.27;;;20.87;;
5127;SDS011;2582;48.770;9.190;2022-08-19T02:56:27;24.97;;;22.30;;
5127;SDS011;2582;48.770;9.190;2022-08-19T02:58:53;21.97;;;19.77;;
5127;SDS011;2582;48.770;9.190;2022-08-19T03:01:21;24.33;;;21.97;;
5127;SDS011;2582;48.770;9.190;2022-08-19T03:03:52;23.17;;;20.77;;
5127;SDS011;2582;48.770;9.190;2022-08-19T03:06:17;22.07;;;19.60;;
5127;SDS011;2582;48.770;9.190;2022-08-19T03:08:44;24.37;;;22.07;;
5127;SDS011;2582;48.770;9.190;2022-08-19T03:11:13;25.57;;;23.17;;
5127;SDS011;2582;48.770;9.190;2022-08-19T03:13:44;25.47;;;23.00;;
5127;SDS011;2582;48.770;9.190;2022-08-19T03:16:11;24.90;;;22.50;;
5127;SDS011;2582;48.770;9.190;2022-08-19T03:18:37;26.17;;;23.67;;
5127;SDS011;2582;48.770;9.190;2022-08-19T03:21:03;23.47;;;21.17;;
5127;SDS011;2582;48.770;9.190;2022-08-19T03:23:29;25.37;;;22.90;;
5127;SDS011;2582;48.770;9.190;2022-08-19T03:25:55;23.80;;;21.30;;
5127;SDS011;2582;48.770;9.190;2022-08-19T03:28:21;26.10;;;23.50;;
5127;SDS011;2582;48.770;9.190;2022-08-19T03:31:03;25.27;;;22.60;;
5127;SDS011;2582;48.770;9.190;2022-08-19T03:33:32;24.80;;;22.43;;
5127;SDS011;2582;48.770;9.190;2022-08-19T03:36:00;26.67;;;23.40;;
5127;SDS011;2582;48.770;9.190;2022-08-19T03:38:27;25.20;;;22.60;;
5127;SDS011;2582;48.770;9.190;2022-08-19T03:40:53;27.10;;;24.37;;
5127;SDS011;2582;48.770;9.190;2022-08-19T03:43:18;28.30;;;25.50;;
5127;SDS011;2582;48.770;9.190;2022-08-19T03:45:44;29.17;;;26.30;;
5127;SDS011;2582;48.770;9.190;2022-08-19T03:48:10;25.70;;;23.37;;
5127;SDS011;2582;48.770;9.190;2022-08-19T03:50:39;25.50;;;23.10;;
5127;SDS011;2582;48.770;9.190;2022-08-19T03:53:04;25.93;;;23.50;;
5127;SDS011;2582;48.770;9.190;2022-08-19T03:55:31;25.43;;;23.03;;
5127;SDS011;2582;48.770;9.190;2022-08-19T03:57:56;24.47;;;22.07;;
5127;SDS011;2582;48.770;9.190;2022-08-19T04:00:22;28.33;;;25.47;;
5127;SDS011;2582;48.770;9.190;2022-08-19T04:02:47;26.23;;;23.53;;
5127;SDS011;2582;48.770;9.190;2022-08-19T04:05:13;27.93;;;25.10;;
5127;SDS011;2582;48.770;9.190;2022-08-19T04:07:39;28.93;;;26.10;;
5127;SDS011;2582;48.770;9.190;2022-08-19T04:10:05;26.60;;;24.17;;
5127;SDS011;2582;48.770;9.190;2022-08-19T04:12:31;28.50;;;25.53;;
5127;SDS011;2582;48.770;9.190;2022-08-19T04:14:57;28.40;;;25.40;;
5127;SDS011;2582;48.770;9.190;2022-08-19T04:17:23;28.57;;;25.77;;
5127;SDS011;2582;48.770;9.190;2022-08-19T04:19:49;28.07;;;25.10;;
5127;SDS011;2582;48.770;9.190;2022-08-19T04:22:15;28.37;;;25.57;;
5127;SDS011;2582;48.770;9.190;2022-08-19T04:24:40;28.87;;;26.17;;
5127;SDS011;2582;48.770;9.190;2022-08-19T04:27:06;30.33;;;27.43;;
5127;SDS011;2582;48.770;9.190;2022-08-19T04:29:32;25.43;;;23.10;;
5127;SDS011;2582;48.770;9.190;2022-08-19T04:31:58;27.60;;;24.90;;
5127;SDS011;2582;48.770;9.190;2022-08-19T04:34:25;30.27;;;27.20;;
5127;SDS011;2582;48.770;9.190;2022-08-19T04:36:53;28.00;;;25.10;;
5127;SDS011;2582;48.770;9.190;2022-08-19T04:39:23;27.37;;;24.67;;
5127;SDS011;2582;48.770;9.190;2022-08-19T04:42:09;31.20;;;28.13;;
5127;SDS011;2582;48.770;9.190;2022-08-19T04:44:54;32.53;;;29.37;;
5127;SDS011;2582;48.770;9.190;2022-08-19T04:47:19;28.90;;;25.90;;
5127;SDS011;2582;48.770;9.190;2022-08-19T04:49:45;31.07;;;28.10;;
5127;SDS011;2582;48.770;9.190;2022-08-19T04:52:11;29.20;;;26.30;;
5127;SDS011;2582;48.770;9.190;2022-08-19T04:54:36;27.80;;;24.73;;
5127;SDS011;2582;48.770;9.190;2022-08-19T04:57:02;30.00;;;27.10;;
5127;SDS011;2582;48.770;9.190;2022-08-19T04:59:31;30.63;;;27.37;;
5127;SDS011;2582;48.770;9.190;2022-08-19T05:01:58;28.60;;;25.90;;
5127;SDS011;2582;48.770;9.190;2022-08-19T05:04:23;26.90;;;24.10;;
5127;SDS011;2582;48.770;9.190;2022-08-19T05:06:49;28.97;;;26.37;;
5127;SDS011;2582;48.770;9.190;2022-08-19T05:09:16;29.30;;;26.40;;
5127;SDS011;2582;48.770;9.190;2022-08-19T05:11:42;32.30;;;29.10;;
5127;SDS011;2582;48.770;9.190;2022-08-19T05:14:09;28.70;;;25.90;;
5127;SDS011;2582;48.770;9.190;2022-08-19T05:16:37;28.87;;;26.17;;
5127;SDS011;2582;48.770;9.190;2022-08-19T05:19:03;28.37;;;25.60;;
5127;SDS011;2582;48.770;9.190;2022-08-19T05:21:47;28.77;;;25.90;;
5127;SDS011;2582;48.770;9.190;2022-08-19T05:24:31;29.70;;;24.80;;
5127;SDS011;2582;48.770;9.190;2022-08-19T05:26:59;29.00;;;26.10;;
5127;SDS011;2582;48.770;9.190;2022-08-19T05:29:27;27.77;;;25.10;;
5127;SDS011;2582;48.770;9.190;2022-08-19T05:31:54;27.23;;;24.63;;
5127;SDS011;2582;48.770;9.190;2022-08-19T05:34:20;30.20;;;27.33;;
5127;SDS011;2582;48.770;9.190;2022-08-19T05:36:50;30.47;;;27.53;;
5127;SDS011;2582;48.770;9.190;2022-08-19T05:39:21;26.80;;;24.40;;
5127;SDS011;2582;48.770;9.190;2022-08-19T05:41:49;28.00;;;25.30;;
5127;SDS011;2582;48.770;9.190;2022-08-19T05:44:20;27.97;;;25.33;;
5127;SDS011;2582;48.770;9.190;2022-08-19T05:46:47;28.10;;;25.33;;
5127;SDS011;2582;48.770;9.190;2022-08-19T05:49:13;26.53;;;23.83;;
5127;SDS011;2582;48.770;9.190;2022-08-19T05:51:40;28.10;;;25.43;;
5127;SDS011;2582;48.770;9.190;2022-08-19T05:54:07;30.53;;;27.43;;
5127;SDS011;2582;48.770;9.190;2022-08-19T05:56:34;29.33;;;26.60;;
5127;SDS011;2582;48.770;9.190;2022-08-19T05:59:03;25.13;;;22.93;;
5127;SDS011;2582;48.770;9.190;2022-08-19T06:01:33;29.23;;;26.50;;
5127;SDS011;2582;48.770;9.190;2022-08-19T06:03:59;27.57;;;24.77;;
5127;SDS011;2582;48.770;9.190;2022-08-19T06:06:25;28.80;;;26.00;;
5127;SDS011;2582;48.770;9.190;2022-08-19T06:08:51;30.03;;;27.07;;
5127;SDS011;2582;48.770;9.190;2022-08-19T06:13:50;28.17;;;25.50;;
5127;SDS011;2582;48.770;9.190;2022-08-19T06:16:18;29.30;;;26.20;;
5127;SDS011;2582;48.770;9.190;2022-08-19T06:18:50;29.67;;;26.77;;
5127;SDS011;2582;48.770;9.190;2022-08-19T06:21:20;29.90;;;27.00;;
5127;SDS011;2582;48.770;9.190;2022-08-19T06:23:47;27.40;;;24.50;;
5127;SDS011;2582;48.770;9.190;2022-08-19T06:26:14;29.43;;;26.53;;
5127;SDS011;2582;48.770;9.190;2022-08-19T06:28:40;25.87;;;23.37;;
5127;SDS011;2582;48.770;9.190;2022-08-19T06:31:09;29.60;;;26.70;;
5127;SDS011;2582;48.770;9.190;2022-08-19T06:33:38;29.90;;;26.80;;
5127;SDS011;2582;48.770;9.190;2022-08-19T06:36:04;28.03;;;25.40;;
5127;SDS011;2582;48.770;9.190;2022-08-19T06:38:30;28.33;;;25.53;;
5127;SDS011;2582;48.770;9.190;2022-08-19T06:41:02;29.87;;;26.93;;
5127;SDS011;2582;48.770;9.190;2022-08-19T06:43:29;29.07;;;26.27;;
5127;SDS011;2582;48.770;9.190;2022-08-19T06:45:54;29.40;;;26.27;;
5127;SDS011;2582;48.770;9.190;2022-08-19T06:48:20;28.90;;;26.10;;
5127;SDS011;2582;48.770;9.190;2022-08-19T06:50:46;31.33;;;28.23;;
5127;SDS011;2582;48.770;9.190;2022-08-19T06:53:15;30.13;;;27.13;;
5127;SDS011;2582;48.770;9.190;2022-08-19T06:55:40;28.83;;;25.80;;
5127;SDS011;2582;48.770;9.190;2022-08-19T06:58:06;30.53;;;27.40;;
5127;SDS011;2582;48.770;9.190;2022-08-19T07:00:32;30.10;;;27.10;;
5127;SDS011;2582;48.770;9.190;2022-08-19T07:02:57;27.20;;;24.50;;
5127;SDS011;2582;48.770;9.190;2022-08-19T07:05:23;28.07;;;25.17;;
5127;SDS011;2582;48.770;9.190;2022-08-19T07:07:49;30.93;;;28.03;;
5127;SDS011;2582;48.770;9.190;2022-08-19T07:10:15;30.93;;;27.93;;
5127;SDS011;2582;48.770;9.190;2022-08-19T07:12:40;28.37;;;25.67;;
5127;SDS011;2582;48.770;9.190;2022-08-19T07:15:06;27.33;;;24.70;;
5127;SDS011;2582;48.770;9.190;2022-08-19T07:17:34;27.53;;;25.03;;
5127;SDS011;2582;48.770;9.190;2022-08-19T07:20:04;25.67;;;23.30;;
5127;SDS011;2582;48.770;9.190;2022-08-19T07:22:34;27.77;;;25.03;;
5127;SDS011;2582;48.770;9.190;2022-08-19T07:25:00;30.10;;;27.20;;
5127;SDS011;2582;48.770;9.190;2022-08-19T07:27:28;28.80;;;26.10;;
5127;SDS011;2582;48.770;9.190;2022-08-19T07:29:54;25.07;;;22.57;;
5127;SDS011;2582;48.770;9.190;2022-08-19T07:32:19;29.27;;;26.17;;
5127;SDS011;2582;48.770;9.190;2022-08-19T07:34:45;28.90;;;26.20;;
5127;SDS011;2582;48.770;9.190;2022-08-19T07:37:10;26.30;;;23.60;;
5127;SDS011;2582;48.770;9.190;2022-08-19T07:39:37;26.57;;;23.97;;
5127;SDS011;2582;48.770;9.190;2022-08-19T07:42:05;25.87;;;23.30;;
5127;SDS011;2582;48.770;9.190;2022-08-19T07:44:33;28.03;;;25.23;;
5127;SDS011;2582;48.770;9.190;2022-08-19T07:46:59;30.40;;;24.97;;
5127;SDS011;2582;48.770;9.190;2022-08-19T07:49:26;27.27;;;24.40;;
5127;SDS011;2582;48.770;9.190;2022-08-19T07:51:53;29.10;;;26.30;;
5127;SDS011;2582;48.770;9.190;2022-08-19T07:54:22;25.30;;;22.93;;
5127;SDS011;2582;48.770;9.190;2022-08-19T07:56:49;30.37;;;27.27;;
5127;SDS011;2582;48.770;9.190;2022-08-19T07:59:15;28.07;;;25.07;;
5127;SDS011;2582;48.770;9.190;2022-08-19T08:01:42;26.50;;;23.80;;
5127;SDS011;2582;48.770;9.190;2022-08-19T08:04:08;26.70;;;23.83;;
5127;SDS011;2582;48.770;9.190;2022-08-19T08:06:53;26.93;;;24.33;;
5127;SDS011;2582;48.770;9.190;2022-08-19T08:09:38;24.90;;;22.50;;
5127;SDS011;2582;48.770;9.190;2022-08-19T08:14:38;27.37;;;24.53;;
5127;SDS011;2582;48.770;9.190;2022-08-19T08:17:07;26.33;;;23.83;;
5127;SDS011;2582;48.770;9.190;2022-08-19T08:19:33;25.83;;;23.23;;
5127;SDS011;2582;48.770;9.190;2022-08-19T08:22:00;26.13;;;23.63;;
5127;SDS011;2582;48.770;9.190;2022-08-19T08:24:27;26.10;;;23.67;;
5127;SDS011;2582;48.770;9.190;2022-08-19T08:26:55;27.27;;;24.43;;
5127;SDS011;2582;48.770;9.190;2022-08-19T08:29:22;29.53;;;26.70;;
5127;SDS011;2582;48.770;9.190;2022-08-19T08:31:48;27.13;;;24.63;;
5127;SDS011;2582;48.770;9.190;2022-08-19T08:34:14;27.33;;;24.67;;
5127;SDS011;2582;48.770;9.190;2022-08-19T08:36:41;29.13;;;26.27;;
5127;SDS011;2582;48.770;9.190;2022-08-19T08:39:11;27.13;;;24.33;;
5127;SDS011;2582;48.770;9.190;2022-08-19T08:42:07;27.63;;;24.67;;
5127;SDS011;2582;48.770;9.190;2022-08-19T08:45:09;28.20;;;25.40;;
5127;SDS011;2582;48.770;9.190;2022-08-19T08:47:39;26.33;;;23.83;;
5127;SDS011;2582;48.770;9.190;2022-08-19T08:50:13;31.37;;;24.20;;
5127;SDS011;2582;48.770;9.190;2022-08-19T08:52:48;26.43;;;23.77;;
5127;SDS011;2582;48.770;9.190;2022-08-19T08:55:19;28.13;;;25.53;;
5127;SDS011;2582;48.770;9.190;2022-08-19T09:02:47;26.03;;;23.43;;
5127;SDS011;2582;48.770;9.190;2022-08-19T09:05:13;26.60;;;23.83;;
5127;SDS011;2582;48.770;9.190;2022-08-19T09:13:23;25.23;;;22.73;;
5127;SDS011;2582;48.770;9.190;2022-08-19T09:16:16;25.77;;;21.80;;
5127;SDS011;2582;48.770;9.190;2022-08-19T09:18:46;26.87;;;24.40;;
5127;SDS011;2582;48.770;9.190;2022-08-19T09:21:18;23.73;;;21.43;;
5127;SDS011;2582;48.770;9.190;2022-08-19T09:23:43;25.83;;;23.43;;
5127;SDS011;2582;48.770;9.190;2022-08-19T09:26:10;24.23;;;21.93;;
5127;SDS011;2582;48.770;9.190;2022-08-19T09:28:38;25.93;;;21.90;;
5127;SDS011;2582;48.770;9.190;2022-08-19T09:31:29;24.00;;;21.60;;
5127;SDS011;2582;48.770;9.190;2022-08-19T09:33:54;24.73;;;22.33;;
5127;SDS011;2582;48.770;9.190;2022-08-19T09:36:22;25.57;;;22.67;;
5127;SDS011;2582;48.770;9.190;2022-08-19T09:38:50;21.47;;;19.43;;
5127;SDS011;2582;48.770;9.190;2022-08-19T09:41:17;23.17;;;20.87;;
5127;SDS011;2582;48.770;9.190;2022-08-19T09:43:44;22.50;;;20.40;;
5127;SDS011;2582;48.770;9.190;2022-08-19T09:46:12;22.80;;;19.40;;
5127;SDS011;2582;48.770;9.190;2022-08-19T09:48:38;22.93;;;19.77;;
5127;SDS011;2582;48.770;9.190;2022-08-19T09:51:08;20.80;;;18.80;;
5127;SDS011;2582;48.770;9.190;2022-08-19T09:53:36;22.70;;;20.60;;
5127;SDS011;2582;48.770;9.190;2022-08-19T09:56:03;27.23;;;20.20;;
5127;SDS011;2582;48.770;9.190;2022-08-19T09:58:29;22.40;;;20.40;;
5127;SDS011;2582;48.770;9.190;2022-08-19T10:00:56;22.27;;;20.07;;
5127;SDS011;2582;48.770;9.190;2022-08-19T10:03:23;22.40;;;20.40;;
5127;SDS011;2582;48.770;9.190;2022-08-19T10:05:50;21.00;;;19.10;;
5127;SDS011;2582;48.770;9.190;2022-08-19T10:08:17;18.53;;;16.80;;
5127;SDS011;2582;48.770;9.190;2022-08-19T10:10:46;21.20;;;19.00;;
5127;SDS011;2582;48.770;9.190;2022-08-19T10:13:13;20.93;;;18.87;;
5127;SDS011;2582;48.770;9.190;2022-08-19T10:15:39;19.60;;;17.60;;
5127;SDS011;2582;48.770;9.190;2022-08-19T10:18:06;21.10;;;19.07;;
5127;SDS011;2582;48.770;9.190;2022-08-19T10:20:32;19.93;;;18.13;;
5127;SDS011;2582;48.770;9.190;2022-08-19T10:23:00;19.00;;;17.30;;
5127;SDS011;2582;48.770;9.190;2022-08-19T10:25:29;19.37;;;16.40;;
5127;SDS011;2582;48.770;9.190;2022-08-19T10:27:54;18.87;;;17.07;;
5127;SDS011;2582;48.770;9.190;2022-08-19T10:30:20;19.87;;;18.10;;
5127;SDS011;2582;48.770;9.190;2022-08-19T10:32:46;20.30;;;18.10;;
5127;SDS011;2582;48.770;9.190;2022-08-19T10:35:12;19.77;;;17.77;;
5127;SDS011;2582;48.770;9.190;2022-08-19T10:37:38;20.87;;;18.17;;
5127;SDS011;2582;48.770;9.190;2022-08-19T10:40:05;19.27;;;17.30;;
5127;SDS011;2582;48.770;9.190;2022-08-19T10:42:32;19.30;;;17.40;;
5127;SDS011;2582;48.770;9.190;2022-08-19T10:44:58;19.27;;;17.37;;
5127;SDS011;2582;48.770;9.190;2022-08-19T10:47:24;19.00;;;17.00;;
5127;SDS011;2582;48.770;9.190;2022-08-19T10:49:49;17.97;;;16.13;;
5127;SDS011;2582;48.770;9.190;2022-08-19T10:52:33;18.70;;;16.93;;
5127;SDS011;2582;48.770;9.190;2022-08-19T10:55:00;17.10;;;15.50;;
5127;SDS011;2582;48.770;9.190;2022-08-19T10:57:45;16.63;;;14.93;;
5127;SDS011;2582;48.770;9.190;2022-08-19T11:00:11;15.90;;;14.50;;
5127;SDS011;2582;48.770;9.190;2022-08-19T11:02:38;16.47;;;14.97;;
5127;SDS011;2582;48.770;9.190;2022-08-19T11:05:04;13.97;;;12.57;;
5127;SDS011;2582;48.770;9.190;2022-08-19T11:07:32;15.80;;;13.87;;
5127;SDS011;2582;48.770;9.190;2022-08-19T11:09:57;15.20;;;13.10;;
5127;SDS011;2582;48.770;9.190;2022-08-19T11:12:23;15.23;;;13.70;;
5127;SDS011;2582;48.770;9.190;2022-08-19T11:14:49;12.57;;;11.47;;
5127;SDS011;2582;48.770;9.190;2022-08-19T11:17:15;13.37;;;12.10;;
5127;SDS011;2582;48.770;9.190;2022-08-19T11:19:40;13.50;;;12.23;;
5127;SDS011;2582;48.770;9.190;2022-08-19T11:22:07;13.97;;;12.60;;
5127;SDS011;2582;48.770;9.190;2022-08-19T11:24:34;14.47;;;12.97;;
5127;SDS011;2582;48.770;9.190;2022-08-19T11:27:01;12.97;;;11.77;;
5127;SDS011;2582;48.770;9.190;2022-08-19T11:29:29;13.53;;;12.20;;
5127;SDS011;2582;48.770;9.190;2022-08-19T11:31:55;14.30;;;12.50;;
5127;SDS011;2582;48.770;9.190;2022-08-19T11:34:22;13.50;;;12.20;;
5127;SDS011;2582;48.770;9.190;2022-08-19T11:36:50;13.40;;;12.20;;
5127;SDS011;2582;48.770;9.190;2022-08-19T11:39:17;11.67;;;10.47;;
5127;SDS011;2582;48.770;9.190;2022-08-19T11:41:45;12.07;;;10.97;;
5127;SDS011;2582;48.770;9.190;2022-08-19T11:44:12;11.00;;;10.10;;
5127;SDS011;2582;48.770;9.190;2022-08-19T11:46:39;13.07;;;10.80;;
5127;SDS011;2582;48.770;9.190;2022-08-19T11:49:06;12.07;;;10.87;;
5127;SDS011;2582;48.770;9.190;2022-08-19T11:51:34;12.37;;;11.27;;
5127;SDS011;2582;48.770;9.190;2022-08-19T11:54:01;12.37;;;11.17;;
5127;SDS011;2582;48.770;9.190;2022-08-19T11:56:30;11.83;;;10.63;;
5127;SDS011;2582;48.770;9.190;2022-08-19T11:58:56;12.97;;;11.77;;
5127;SDS011;2582;48.770;9.190;2022-08-19T12:01:23;11.70;;;10.50;;
5127;SDS011;2582;48.770;9.190;2022-08-19T12:03:50;11.77;;;10.67;;
5127;SDS011;2582;48.770;9.190;2022-08-19T12:06:19;12.53;;;11.43;;
5127;SDS011;2582;48.770;9.190;2022-08-19T12:08:52;11.57;;;10.57;;
5127;SDS011;2582;48.770;9.190;2022-08-19T12:11:18;11.70;;;10.50;;
5127;SDS011;2582;48.770;9.190;2022-08-19T12:13:44;12.40;;;10.87;;
5127;SDS011;2582;48.770;9.190;2022-08-19T12:16:15;11.57;;;10.47;;
5127;SDS011;2582;48.770;9.190;2022-08-19T12:18:43;11.07;;;10.07;;
5127;SDS011;2582;48.770;9.190;2022-08-19T12:21:11;12.03;;;10.93;;
5127;SDS011;2582;48.770;9.190;2022-08-19T12:23:41;11.00;;;10.00;;
5127;SDS011;2582;48.770;9.190;2022-08-19T12:26:09;13.90;;;12.70;;
5127;SDS011;2582;48.770;9.190;2022-08-19T12:28:35;14.97;;;13.20;;
5127;SDS011;2582;48.770;9.190;2022-08-19T12:31:02;13.70;;;12.50;;
5127;SDS011;2582;48.770;9.190;2022-08-19T12:33:28;15.37;;;14.03;;
5127;SDS011;2582;48.770;9.190;2022-08-19T12:35:54;13.53;;;12.43;;
5127;SDS011;2582;48.770;9.190;2022-08-19T12:38:24;14.63;;;13.33;;
5127;SDS011;2582;48.770;9.190;2022-08-19T12:40:50;14.13;;;12.87;;
5127;SDS011;2582;48.770;9.190;2022-08-19T12:43:16;16.10;;;14.73;;
5127;SDS011;2582;48.770;9.190;2022-08-19T12:45:44;17.20;;;15.60;;
5127;SDS011;2582;48.770;9.190;2022-08-19T12:48:10;16.83;;;15.33;;
5127;SDS011;2582;48.770;9.190;2022-08-19T12:50:38;16.77;;;14.60;;
5127;SDS011;2582;48.770;9.190;2022-08-19T12:53:05;17.00;;;15.60;;
5127;SDS011;2582;48.770;9.190;2022-08-19T12:55:31;16.33;;;14.83;;
5127;SDS011;2582;48.770;9.190;2022-08-19T12:57:56;18.37;;;16.77;;
5127;SDS011;2582;48.770;9.190;2022-08-19T13:00:22;17.43;;;15.80;;
5127;SDS011;2582;48.770;9.190;2022-08-19T13:02:50;17.37;;;15.87;;
5127;SDS011;2582;48.770;9.190;2022-08-19T13:05:21;19.27;;;17.47;;
5127;SDS011;2582;48.770;9.190;2022-08-19T13:07:49;18.23;;;16.67;;
5127;SDS011;2582;48.770;9.190;2022-08-19T13:10:18;19.27;;;17.50;;
5127;SDS011;2582;48.770;9.190;2022-08-19T13:12:45;21.13;;;19.23;;
5127;SDS011;2582;48.770;9.190;2022-08-19T13:15:13;19.60;;;17.67;;
5127;SDS011;2582;48.770;9.190;2022-08-19T13:17:40;18.80;;;17.20;;
5127;SDS011;2582;48.770;9.190;2022-08-19T13:20:07;20.43;;;18.47;;
5127;SDS011;2582;48.770;9.190;2022-08-19T13:22:34;21.40;;;19.43;;
5127;SDS011;2582;48.770;9.190;2022-08-19T13:25:00;23.00;;;20.60;;
5127;SDS011;2582;48.770;9.190;2022-08-19T13:27:27;22.10;;;20.00;;
5127;SDS011;2582;48.770;9.190;2022-08-19T13:29:54;23.33;;;21.10;;
5127;SDS011;2582;48.770;9.190;2022-08-19T13:32:38;24.10;;;21.73;;
5127;SDS011;2582;48.770;9.190;2022-08-19T13:35:22;26.83;;;24.17;;
5127;SDS011;2582;48.770;9.190;2022-08-19T13:37:48;27.67;;;25.20;;
5127;SDS011;2582;48.770;9.190;2022-08-19T13:40:18;24.70;;;22.30;;
5127;SDS011;2582;48.770;9.190;2022-08-19T13:42:49;29.00;;;24.93;;
5127;SDS011;2582;48.770;9.190;2022-08-19T13:45:17;28.07;;;25.30;;
5127;SDS011;2582;48.770;9.190;2022-08-19T13:47:48;26.67;;;24.13;;
5127;SDS011;2582;48.770;9.190;2022-08-19T13:50:16;30.27;;;27.17;;
5127;SDS011;2582;48.770;9.190;2022-08-19T13:52:44;32.63;;;29.43;;
5127;SDS011;2582;48.770;9.190;2022-08-19T13:55:10;33.13;;;29.80;;
5127;SDS011;2582;48.770;9.190;2022-08-19T13:57:36;31.00;;;28.00;;
5127;SDS011;2582;48.770;9.190;2022-08-19T14:00:07;34.33;;;31.00;;
5127;SDS011;2582;48.770;9.190;2022-08-19T14:02:35;32.77;;;29.37;;
5127;SDS011;2582;48.770;9.190;2022-08-19T14:05:03;30.77;;;27.83;;
5127;SDS011;2582;48.770;9.190;2022-08-19T14:07:30;35.23;;;31.73;;
5127;SDS011;2582;48.770;9.190;2022-08-19T14:09:55;33.90;;;30.67;;
5127;SDS011;2582;48.770;9.190;2022-08-19T14:12:21;35.27;;;31.77;;
5127;SDS011;2582;48.770;9.190;2022-08-19T14:14:47;36.67;;;32.77;;
5127;SDS011;2582;48.770;9.190;2022-08-19T14:17:12;31.30;;;28.30;;
5127;SDS011;2582;48.770;9.190;2022-08-19T14:19:38;36.53;;;32.93;;
5127;SDS011;2582;48.770;9.190;2022-08-19T14:22:03;35.70;;;31.93;;
5127;SDS011;2582;48.770;9.190;2022-08-19T14:24:30;33.77;;;30.40;;
5127;SDS011;2582;48.770;9.190;2022-08-19T14:26:57;36.43;;;32.87;;
5127;SDS011;2582;48.770;9.190;2022-08-19T14:29:23;37.17;;;33.47;;
5127;SDS011;2582;48.770;9.190;2022-08-19T14:31:49;33.40;;;29.90;;
5127;SDS011;2582;48.770;9.190;2022-08-19T14:34:15;32.37;;;29.27;;
5127;SDS011;2582;48.770;9.190;2022-08-19T14:36:40;31.70;;;28.50;;
5127;SDS011;2582;48.770;9.190;2022-08-19T14:39:06;29.03;;;26.40;;
5127;SDS011;2582;48.770;9.190;2022-08-19T14:41:33;27.10;;;24.50;;
5127;SDS011;2582;48.770;9.190;2022-08-19T14:43:59;27.70;;;25.07;;
5127;SDS011;2582;48.770;9.190;2022-08-19T14:46:26;26.83;;;24.23;;
5127;SDS011;2582;48.770;9.190;2022-08-19T14:48:53;27.97;;;25.27;;
5127;SDS011;2582;48.770;9.190;2022-08-19T14:51:19;24.93;;;22.47;;
5127;SDS011;2582;48.770;9.190;2022-08-19T14:53:46;25.63;;;23.13;;
5127;SDS011;2582;48.770;9.190;2022-08-19T14:56:16;27.50;;;24.83;;
5127;SDS011;2582;48.770;9.190;2022-08-19T14:58:47;26.07;;;23.67;;
5127;SDS011;2582;48.770;9.190;2022-08-19T15:01:16;28.60;;;26.00;;
5127;SDS011;2582;48.770;9.190;2022-08-19T15:03:45;23.40;;;21.00;;
5127;SDS011;2582;48.770;9.190;2022-08-19T15:06:11;24.07;;;21.87;;
5127;SDS011;2582;48.770;9.190;2022-08-19T15:08:37;22.33;;;20.13;;